sensor_id;sensor_type;location;lat;lon;timestamp;temperature;humidity
12460;DHT22;6295;49.452;8.466;2022-07-06T00:02:18;20.50;87.90
12460;DHT22;6295;49.452;8.466;2022-07-06T00:06:20;20.40;88.40
12460;DHT22;6295;49.452;8.466;2022-07-06T00:18:28;20.30;89.50
12460;DHT22;6295;49.452;8.466;2022-07-06T00:22:31;20.30;90.20
12460;DHT22;6295;49.452;8.466;2022-07-06T00:26:33;20.20;90.40
12460;DHT22;6295;49.452;8.466;2022-07-06T00:30:35;20.10;90.50
12460;DHT22;6295;49.452;8.466;2022-07-06T00:34:38;20.10;91.20
12460;DHT22;6295;49.452;8.466;2022-07-06T00:38:41;19.90;91.50
12460;DHT22;6295;49.452;8.466;2022-07-06T00:46:46;19.90;91.90
12460;DHT22;6295;49.452;8.466;2022-07-06T00:50:50;19.90;92.00
12460;DHT22;6295;49.452;8.466;2022-07-06T00:54:52;19.80;92.10
12460;DHT22;6295;49.452;8.466;2022-07-06T00:58:54;19.70;92.70
12460;DHT22;6295;49.452;8.466;2022-07-06T01:02:57;19.70;92.90
12460;DHT22;6295;49.452;8.466;2022-07-06T01:15:07;19.60;93.20
12460;DHT22;6295;49.452;8.466;2022-07-06T01:19:10;19.50;93.50
12460;DHT22;6295;49.452;8.466;2022-07-06T01:31:21;19.30;94.30
12460;DHT22;6295;49.452;8.466;2022-07-06T01:43:30;19.10;95.30
12460;DHT22;6295;49.452;8.466;2022-07-06T01:47:32;19.10;95.50
12460;DHT22;6295;49.452;8.466;2022-07-06T01:51:34;19.00;95.50
12460;DHT22;6295;49.452;8.466;2022-07-06T01:55:38;19.00;95.70
12460;DHT22;6295;49.452;8.466;2022-07-06T01:59:40;18.90;95.90
12460;DHT22;6295;49.452;8.466;2022-07-06T02:07:44;18.80;96.30
12460;DHT22;6295;49.452;8.466;2022-07-06T02:11:48;18.80;96.30
12460;DHT22;6295;49.452;8.466;2022-07-06T02:19:52;18.80;96.70
12460;DHT22;6295;49.452;8.466;2022-07-06T02:27:58;18.60;96.90
12460;DHT22;6295;49.452;8.466;2022-07-06T02:32:00;18.60;97.00
12460;DHT22;6295;49.452;8.466;2022-07-06T02:36:02;18.50;97.00
12460;DHT22;6295;49.452;8.466;2022-07-06T02:44:09;18.50;97.10
12460;DHT22;6295;49.452;8.466;2022-07-06T02:48:11;18.40;97.20
12460;DHT22;6295;49.452;8.466;2022-07-06T02:52:13;18.40;97.40
12460;DHT22;6295;49.452;8.466;2022-07-06T02:56:15;18.30;97.30
12460;DHT22;6295;49.452;8.466;2022-07-06T03:08:23;18.20;97.30
12460;DHT22;6295;49.452;8.466;2022-07-06T03:12:25;18.20;97.30
12460;DHT22;6295;49.452;8.466;2022-07-06T03:16:28;18.20;97.40
12460;DHT22;6295;49.452;8.466;2022-07-06T03:20:30;18.20;97.40
12460;DHT22;6295;49.452;8.466;2022-07-06T03:28:35;18.10;97.30
12460;DHT22;6295;49.452;8.466;2022-07-06T03:32:38;18.10;97.00
12460;DHT22;6295;49.452;8.466;2022-07-06T03:36:40;18.00;97.30
12460;DHT22;6295;49.452;8.466;2022-07-06T03:40:42;18.00;97.60
12460;DHT22;6295;49.452;8.466;2022-07-06T03:44:44;18.00;97.80
12460;DHT22;6295;49.452;8.466;2022-07-06T03:52:50;18.00;97.90
12460;DHT22;6295;49.452;8.466;2022-07-06T03:56:52;18.00;98.00
12460;DHT22;6295;49.452;8.466;2022-07-06T04:00:54;17.90;98.00
12460;DHT22;6295;49.452;8.466;2022-07-06T04:09:00;17.70;98.30
12460;DHT22;6295;49.452;8.466;2022-07-06T04:13:02;17.70;98.40
12460;DHT22;6295;49.452;8.466;2022-07-06T04:17:04;17.70;98.70
12460;DHT22;6295;49.452;8.466;2022-07-06T04:21:27;17.70;98.90
12460;DHT22;6295;49.452;8.466;2022-07-06T04:25:29;17.70;99.00
12460;DHT22;6295;49.452;8.466;2022-07-06T04:29:31;17.80;99.30
12460;DHT22;6295;49.452;8.466;2022-07-06T04:33:34;17.80;99.40
12460;DHT22;6295;49.452;8.466;2022-07-06T04:41:40;17.60;99.40
12460;DHT22;6295;49.452;8.466;2022-07-06T04:45:42;17.50;99.60
12460;DHT22;6295;49.452;8.466;2022-07-06T04:49:44;17.40;99.90
12460;DHT22;6295;49.452;8.466;2022-07-06T04:53:48;17.40;99.90
12460;DHT22;6295;49.452;8.466;2022-07-06T04:57:50;17.40;99.90
12460;DHT22;6295;49.452;8.466;2022-07-06T05:01:54;17.30;99.90
12460;DHT22;6295;49.452;8.466;2022-07-06T05:05:56;17.40;99.90
12460;DHT22;6295;49.452;8.466;2022-07-06T05:09:59;17.40;99.90
12460;DHT22;6295;49.452;8.466;2022-07-06T05:14:01;17.40;99.90
12460;DHT22;6295;49.452;8.466;2022-07-06T05:18:04;17.50;99.90
12460;DHT22;6295;49.452;8.466;2022-07-06T05:30:12;17.60;99.90
12460;DHT22;6295;49.452;8.466;2022-07-06T05:34:15;17.50;99.90
12460;DHT22;6295;49.452;8.466;2022-07-06T05:38:18;17.50;99.90
12460;DHT22;6295;49.452;8.466;2022-07-06T05:42:21;17.50;99.90
12460;DHT22;6295;49.452;8.466;2022-07-06T05:46:23;17.50;99.90
12460;DHT22;6295;49.452;8.466;2022-07-06T05:50:25;17.60;99.90
12460;DHT22;6295;49.452;8.466;2022-07-06T05:54:26;17.40;99.90
12460;DHT22;6295;49.452;8.466;2022-07-06T05:58:30;17.50;99.90
12460;DHT22;6295;49.452;8.466;2022-07-06T06:02:39;17.50;99.90
12460;DHT22;6295;49.452;8.466;2022-07-06T06:06:41;17.50;99.90
12460;DHT22;6295;49.452;8.466;2022-07-06T06:10:43;17.50;99.90
12460;DHT22;6295;49.452;8.466;2022-07-06T06:14:47;17.50;99.90
12460;DHT22;6295;49.452;8.466;2022-07-06T06:18:49;17.60;99.90
12460;DHT22;6295;49.452;8.466;2022-07-06T06:22:54;17.60;99.90
12460;DHT22;6295;49.452;8.466;2022-07-06T06:26:56;17.60;99.90
12460;DHT22;6295;49.452;8.466;2022-07-06T06:31:01;17.60;99.90
12460;DHT22;6295;49.452;8.466;2022-07-06T06:35:05;17.70;99.90
12460;DHT22;6295;49.452;8.466;2022-07-06T06:39:07;17.80;99.90
12460;DHT22;6295;49.452;8.466;2022-07-06T06:43:11;17.80;99.90
12460;DHT22;6295;49.452;8.466;2022-07-06T06:47:15;17.90;99.90
12460;DHT22;6295;49.452;8.466;2022-07-06T06:51:19;17.90;99.90
12460;DHT22;6295;49.452;8.466;2022-07-06T06:59:25;17.90;99.90
12460;DHT22;6295;49.452;8.466;2022-07-06T07:03:28;17.90;99.90
12460;DHT22;6295;49.452;8.466;2022-07-06T07:07:30;18.00;99.90
12460;DHT22;6295;49.452;8.466;2022-07-06T07:11:32;18.10;99.90
12460;DHT22;6295;49.452;8.466;2022-07-06T07:15:35;18.20;99.90
12460;DHT22;6295;49.452;8.466;2022-07-06T07:19:38;18.30;99.90
12460;DHT22;6295;49.452;8.466;2022-07-06T07:23:41;18.40;99.90
12460;DHT22;6295;49.452;8.466;2022-07-06T07:27:43;18.40;99.90
12460;DHT22;6295;49.452;8.466;2022-07-06T07:31:46;18.40;99.90
12460;DHT22;6295;49.452;8.466;2022-07-06T07:39:56;18.50;99.90
12460;DHT22;6295;49.452;8.466;2022-07-06T07:44:01;18.50;99.90
12460;DHT22;6295;49.452;8.466;2022-07-06T07:48:08;18.70;99.90
12460;DHT22;6295;49.452;8.466;2022-07-06T07:52:14;18.70;99.90
12460;DHT22;6295;49.452;8.466;2022-07-06T08:00:21;18.80;99.50
12460;DHT22;6295;49.452;8.466;2022-07-06T08:08:30;19.00;99.90
12460;DHT22;6295;49.452;8.466;2022-07-06T08:16:40;19.40;98.90
12460;DHT22;6295;49.452;8.466;2022-07-06T08:20:44;19.40;97.80
12460;DHT22;6295;49.452;8.466;2022-07-06T08:24:50;19.40;98.10
12460;DHT22;6295;49.452;8.466;2022-07-06T08:28:54;19.70;97.70
12460;DHT22;6295;49.452;8.466;2022-07-06T08:32:59;19.70;97.90
12460;DHT22;6295;49.452;8.466;2022-07-06T08:37:03;19.70;97.80
12460;DHT22;6295;49.452;8.466;2022-07-06T08:45:14;19.90;96.80
12460;DHT22;6295;49.452;8.466;2022-07-06T08:49:17;19.90;96.80
12460;DHT22;6295;49.452;8.466;2022-07-06T08:53:22;19.90;95.90
12460;DHT22;6295;49.452;8.466;2022-07-06T08:57:28;19.90;96.50
12460;DHT22;6295;49.452;8.466;2022-07-06T09:01:32;20.00;96.90
12460;DHT22;6295;49.452;8.466;2022-07-06T09:05:36;20.20;96.50
12460;DHT22;6295;49.452;8.466;2022-07-06T09:09:40;20.30;96.60
12460;DHT22;6295;49.452;8.466;2022-07-06T09:13:48;19.70;95.40
12460;DHT22;6295;49.452;8.466;2022-07-06T09:17:56;20.60;95.50
12460;DHT22;6295;49.452;8.466;2022-07-06T09:21:58;20.60;95.50
12460;DHT22;6295;49.452;8.466;2022-07-06T09:26:02;20.60;93.90
12460;DHT22;6295;49.452;8.466;2022-07-06T09:30:08;20.60;94.90
12460;DHT22;6295;49.452;8.466;2022-07-06T09:34:10;20.60;94.30
12460;DHT22;6295;49.452;8.466;2022-07-06T09:38:13;20.70;94.20
12460;DHT22;6295;49.452;8.466;2022-07-06T09:42:15;20.60;93.70
12460;DHT22;6295;49.452;8.466;2022-07-06T09:46:19;20.50;93.30
12460;DHT22;6295;49.452;8.466;2022-07-06T09:50:21;20.60;93.60
12460;DHT22;6295;49.452;8.466;2022-07-06T09:54:23;20.50;93.40
12460;DHT22;6295;49.452;8.466;2022-07-06T09:58:25;20.50;93.00
12460;DHT22;6295;49.452;8.466;2022-07-06T10:02:31;20.50;94.10
12460;DHT22;6295;49.452;8.466;2022-07-06T10:06:36;20.50;93.30
12460;DHT22;6295;49.452;8.466;2022-07-06T10:10:41;20.70;93.90
12460;DHT22;6295;49.452;8.466;2022-07-06T10:14:46;20.80;93.30
12460;DHT22;6295;49.452;8.466;2022-07-06T10:22:59;20.80;92.90
12460;DHT22;6295;49.452;8.466;2022-07-06T10:27:04;20.90;93.40
12460;DHT22;6295;49.452;8.466;2022-07-06T10:35:10;21.00;93.30
12460;DHT22;6295;49.452;8.466;2022-07-06T10:39:12;20.90;92.30
12460;DHT22;6295;49.452;8.466;2022-07-06T10:43:35;21.00;93.40
12460;DHT22;6295;49.452;8.466;2022-07-06T10:51:41;21.30;92.20
12460;DHT22;6295;49.452;8.466;2022-07-06T10:55:44;21.30;91.00
12460;DHT22;6295;49.452;8.466;2022-07-06T11:00:01;21.40;90.70
12460;DHT22;6295;49.452;8.466;2022-07-06T11:04:07;21.40;91.20
12460;DHT22;6295;49.452;8.466;2022-07-06T11:08:14;21.50;90.40
12460;DHT22;6295;49.452;8.466;2022-07-06T11:12:17;21.50;89.50
12460;DHT22;6295;49.452;8.466;2022-07-06T11:16:21;21.50;87.60
12460;DHT22;6295;49.452;8.466;2022-07-06T11:20:24;21.60;88.80
12460;DHT22;6295;49.452;8.466;2022-07-06T11:24:29;21.70;88.20
12460;DHT22;6295;49.452;8.466;2022-07-06T11:28:33;21.80;89.10
12460;DHT22;6295;49.452;8.466;2022-07-06T11:32:36;21.90;87.30
12460;DHT22;6295;49.452;8.466;2022-07-06T11:40:42;22.00;84.90
12460;DHT22;6295;49.452;8.466;2022-07-06T11:44:45;22.10;84.50
12460;DHT22;6295;49.452;8.466;2022-07-06T11:48:47;22.20;81.30
12460;DHT22;6295;49.452;8.466;2022-07-06T11:52:49;22.20;83.30
12460;DHT22;6295;49.452;8.466;2022-07-06T11:56:54;22.30;82.40
12460;DHT22;6295;49.452;8.466;2022-07-06T12:09:10;22.40;77.60
12460;DHT22;6295;49.452;8.466;2022-07-06T12:13:14;22.50;77.80
12460;DHT22;6295;49.452;8.466;2022-07-06T12:21:19;22.60;78.00
12460;DHT22;6295;49.452;8.466;2022-07-06T12:25:35;22.70;77.50
12460;DHT22;6295;49.452;8.466;2022-07-06T12:29:42;22.70;76.30
12460;DHT22;6295;49.452;8.466;2022-07-06T12:33:56;22.70;76.30
12460;DHT22;6295;49.452;8.466;2022-07-06T12:38:00;22.80;75.90
12460;DHT22;6295;49.452;8.466;2022-07-06T12:42:04;22.90;76.80
12460;DHT22;6295;49.452;8.466;2022-07-06T12:46:26;22.90;76.10
12460;DHT22;6295;49.452;8.466;2022-07-06T12:50:34;23.00;78.20
12460;DHT22;6295;49.452;8.466;2022-07-06T12:54:41;23.20;78.20
12460;DHT22;6295;49.452;8.466;2022-07-06T12:58:58;23.30;76.00
12460;DHT22;6295;49.452;8.466;2022-07-06T13:03:04;23.20;76.50
12460;DHT22;6295;49.452;8.466;2022-07-06T13:07:07;23.20;74.60
12460;DHT22;6295;49.452;8.466;2022-07-06T13:11:19;23.20;75.30
12460;DHT22;6295;49.452;8.466;2022-07-06T13:19:24;23.20;74.60
12460;DHT22;6295;49.452;8.466;2022-07-06T13:23:27;23.30;77.50
12460;DHT22;6295;49.452;8.466;2022-07-06T13:27:29;23.40;74.80
12460;DHT22;6295;49.452;8.466;2022-07-06T13:31:31;23.50;74.40
12460;DHT22;6295;49.452;8.466;2022-07-06T13:35:34;23.60;73.50
12460;DHT22;6295;49.452;8.466;2022-07-06T13:39:37;23.60;75.30
12460;DHT22;6295;49.452;8.466;2022-07-06T13:51:47;23.80;73.20
12460;DHT22;6295;49.452;8.466;2022-07-06T14:12:00;24.10;71.10
12460;DHT22;6295;49.452;8.466;2022-07-06T14:16:03;24.10;68.90
12460;DHT22;6295;49.452;8.466;2022-07-06T14:24:15;24.10;70.00
12460;DHT22;6295;49.452;8.466;2022-07-06T14:28:17;24.10;71.60
12460;DHT22;6295;49.452;8.466;2022-07-06T14:32:21;24.10;71.60
12460;DHT22;6295;49.452;8.466;2022-07-06T14:36:25;24.20;74.90
12460;DHT22;6295;49.452;8.466;2022-07-06T14:40:29;24.40;71.90
12460;DHT22;6295;49.452;8.466;2022-07-06T14:44:33;24.30;71.30
12460;DHT22;6295;49.452;8.466;2022-07-06T14:48:36;24.30;72.40
12460;DHT22;6295;49.452;8.466;2022-07-06T14:52:38;24.20;70.70
12460;DHT22;6295;49.452;8.466;2022-07-06T14:56:42;24.10;71.60
12460;DHT22;6295;49.452;8.466;2022-07-06T15:00:45;23.90;70.10
12460;DHT22;6295;49.452;8.466;2022-07-06T15:04:47;23.80;69.70
12460;DHT22;6295;49.452;8.466;2022-07-06T15:12:53;23.70;72.60
12460;DHT22;6295;49.452;8.466;2022-07-06T15:16:55;23.90;74.70
12460;DHT22;6295;49.452;8.466;2022-07-06T15:20:58;23.90;71.40
12460;DHT22;6295;49.452;8.466;2022-07-06T15:29:05;23.70;70.50
12460;DHT22;6295;49.452;8.466;2022-07-06T15:33:07;23.60;71.00
12460;DHT22;6295;49.452;8.466;2022-07-06T15:37:09;23.60;71.50
12460;DHT22;6295;49.452;8.466;2022-07-06T15:41:11;23.40;71.60
12460;DHT22;6295;49.452;8.466;2022-07-06T15:45:15;23.20;71.80
12460;DHT22;6295;49.452;8.466;2022-07-06T15:49:18;23.20;72.60
12460;DHT22;6295;49.452;8.466;2022-07-06T15:53:20;23.10;72.30
12460;DHT22;6295;49.452;8.466;2022-07-06T15:57:25;22.90;73.60
12460;DHT22;6295;49.452;8.466;2022-07-06T16:01:29;22.80;74.00
12460;DHT22;6295;49.452;8.466;2022-07-06T16:05:32;22.60;73.20
12460;DHT22;6295;49.452;8.466;2022-07-06T16:09:34;22.50;73.80
12460;DHT22;6295;49.452;8.466;2022-07-06T16:13:36;22.30;75.50
12460;DHT22;6295;49.452;8.466;2022-07-06T16:17:39;22.30;75.40
12460;DHT22;6295;49.452;8.466;2022-07-06T16:29:48;21.80;75.30
12460;DHT22;6295;49.452;8.466;2022-07-06T16:33:52;21.80;74.10
12460;DHT22;6295;49.452;8.466;2022-07-06T16:37:54;21.80;73.80
12460;DHT22;6295;49.452;8.466;2022-07-06T16:45:59;21.70;77.90
12460;DHT22;6295;49.452;8.466;2022-07-06T16:50:05;21.80;75.90
12460;DHT22;6295;49.452;8.466;2022-07-06T16:54:08;21.70;74.20
12460;DHT22;6295;49.452;8.466;2022-07-06T16:58:10;21.50;75.20
12460;DHT22;6295;49.452;8.466;2022-07-06T17:02:12;21.50;76.20
12460;DHT22;6295;49.452;8.466;2022-07-06T17:06:18;21.50;75.60
12460;DHT22;6295;49.452;8.466;2022-07-06T17:10:21;21.40;74.70
12460;DHT22;6295;49.452;8.466;2022-07-06T17:14:23;21.30;75.20
12460;DHT22;6295;49.452;8.466;2022-07-06T17:18:25;21.40;76.80
12460;DHT22;6295;49.452;8.466;2022-07-06T17:22:29;21.50;75.40
12460;DHT22;6295;49.452;8.466;2022-07-06T17:26:31;21.70;75.20
12460;DHT22;6295;49.452;8.466;2022-07-06T17:30:33;22.00;75.40
12460;DHT22;6295;49.452;8.466;2022-07-06T17:38:41;22.40;74.10
12460;DHT22;6295;49.452;8.466;2022-07-06T17:42:43;22.60;74.60
12460;DHT22;6295;49.452;8.466;2022-07-06T17:46:46;22.60;73.50
12460;DHT22;6295;49.452;8.466;2022-07-06T17:50:48;22.70;73.70
12460;DHT22;6295;49.452;8.466;2022-07-06T17:54:51;22.80;74.30
12460;DHT22;6295;49.452;8.466;2022-07-06T17:58:54;23.00;72.80
12460;DHT22;6295;49.452;8.466;2022-07-06T18:02:58;23.10;72.00
12460;DHT22;6295;49.452;8.466;2022-07-06T18:07:01;22.80;70.20
12460;DHT22;6295;49.452;8.466;2022-07-06T18:11:06;22.80;71.50
12460;DHT22;6295;49.452;8.466;2022-07-06T18:15:10;22.80;72.60
12460;DHT22;6295;49.452;8.466;2022-07-06T18:19:12;23.10;73.10
12460;DHT22;6295;49.452;8.466;2022-07-06T18:23:14;23.10;72.60
12460;DHT22;6295;49.452;8.466;2022-07-06T18:27:18;23.00;72.30
12460;DHT22;6295;49.452;8.466;2022-07-06T18:31:20;22.90;71.90
12460;DHT22;6295;49.452;8.466;2022-07-06T18:35:22;22.90;71.10
12460;DHT22;6295;49.452;8.466;2022-07-06T18:39:25;22.60;70.70
12460;DHT22;6295;49.452;8.466;2022-07-06T18:43:28;22.50;71.20
12460;DHT22;6295;49.452;8.466;2022-07-06T18:47:32;22.40;71.60
12460;DHT22;6295;49.452;8.466;2022-07-06T19:03:52;22.00;72.50
12460;DHT22;6295;49.452;8.466;2022-07-06T19:07:54;21.70;73.00
12460;DHT22;6295;49.452;8.466;2022-07-06T19:11:56;21.30;73.20
12460;DHT22;6295;49.452;8.466;2022-07-06T19:16:00;21.10;73.50
12460;DHT22;6295;49.452;8.466;2022-07-06T19:20:02;21.00;74.10
12460;DHT22;6295;49.452;8.466;2022-07-06T19:24:05;20.90;74.90
12460;DHT22;6295;49.452;8.466;2022-07-06T19:32:11;20.80;75.50
12460;DHT22;6295;49.452;8.466;2022-07-06T19:36:13;20.70;76.70
12460;DHT22;6295;49.452;8.466;2022-07-06T19:40:15;20.60;78.00
12460;DHT22;6295;49.452;8.466;2022-07-06T19:44:17;20.50;79.70
12460;DHT22;6295;49.452;8.466;2022-07-06T19:48:21;20.40;79.70
12460;DHT22;6295;49.452;8.466;2022-07-06T19:56:25;20.20;79.50
12460;DHT22;6295;49.452;8.466;2022-07-06T20:00:27;20.10;81.50
12460;DHT22;6295;49.452;8.466;2022-07-06T20:04:31;20.00;83.40
12460;DHT22;6295;49.452;8.466;2022-07-06T20:08:33;19.80;85.40
12460;DHT22;6295;49.452;8.466;2022-07-06T20:12:35;19.70;87.00
12460;DHT22;6295;49.452;8.466;2022-07-06T20:20:41;19.40;89.00
12460;DHT22;6295;49.452;8.466;2022-07-06T20:24:43;19.30;90.20
12460;DHT22;6295;49.452;8.466;2022-07-06T20:28:45;19.20;90.60
12460;DHT22;6295;49.452;8.466;2022-07-06T20:32:48;19.10;91.20
12460;DHT22;6295;49.452;8.466;2022-07-06T20:40:54;18.90;91.90
12460;DHT22;6295;49.452;8.466;2022-07-06T20:44:57;18.80;92.20
12460;DHT22;6295;49.452;8.466;2022-07-06T20:49:00;18.70;92.60
12460;DHT22;6295;49.452;8.466;2022-07-06T20:53:06;18.60;92.90
12460;DHT22;6295;49.452;8.466;2022-07-06T20:57:09;18.50;93.40
12460;DHT22;6295;49.452;8.466;2022-07-06T21:01:12;18.50;93.80
12460;DHT22;6295;49.452;8.466;2022-07-06T21:05:14;18.30;94.00
12460;DHT22;6295;49.452;8.466;2022-07-06T21:13:20;18.20;94.60
12460;DHT22;6295;49.452;8.466;2022-07-06T21:17:22;18.10;94.90
12460;DHT22;6295;49.452;8.466;2022-07-06T21:21:25;18.10;95.10
12460;DHT22;6295;49.452;8.466;2022-07-06T21:25:28;18.10;95.40
12460;DHT22;6295;49.452;8.466;2022-07-06T21:29:30;18.00;95.80
12460;DHT22;6295;49.452;8.466;2022-07-06T21:37:36;17.90;96.40
12460;DHT22;6295;49.452;8.466;2022-07-06T21:41:39;17.80;96.70
12460;DHT22;6295;49.452;8.466;2022-07-06T21:45:41;17.70;97.00
12460;DHT22;6295;49.452;8.466;2022-07-06T21:49:43;17.70;97.70
12460;DHT22;6295;49.452;8.466;2022-07-06T21:53:45;17.60;97.90
12460;DHT22;6295;49.452;8.466;2022-07-06T21:57:49;17.60;98.00
12460;DHT22;6295;49.452;8.466;2022-07-06T22:01:51;17.50;98.30
12460;DHT22;6295;49.452;8.466;2022-07-06T22:05:53;17.50;98.80
12460;DHT22;6295;49.452;8.466;2022-07-06T22:09:55;17.50;99.10
12460;DHT22;6295;49.452;8.466;2022-07-06T22:13:58;17.40;99.40
12460;DHT22;6295;49.452;8.466;2022-07-06T22:18:00;17.50;99.90
12460;DHT22;6295;49.452;8.466;2022-07-06T22:22:03;17.50;99.90
12460;DHT22;6295;49.452;8.466;2022-07-06T22:26:06;17.50;99.90
12460;DHT22;6295;49.452;8.466;2022-07-06T22:30:12;17.40;99.90
12460;DHT22;6295;49.452;8.466;2022-07-06T22:34:14;17.50;99.90
12460;DHT22;6295;49.452;8.466;2022-07-06T22:38:16;17.50;99.90
12460;DHT22;6295;49.452;8.466;2022-07-06T22:42:18;17.50;99.90
12460;DHT22;6295;49.452;8.466;2022-07-06T22:50:24;17.50;99.90
12460;DHT22;6295;49.452;8.466;2022-07-06T22:54:26;17.50;99.90
12460;DHT22;6295;49.452;8.466;2022-07-06T23:13:47;17.60;99.90
12460;DHT22;6295;49.452;8.466;2022-07-06T23:17:49;17.50;99.90
12460;DHT22;6295;49.452;8.466;2022-07-06T23:21:51;17.50;99.90
12460;DHT22;6295;49.452;8.466;2022-07-06T23:29:58;17.50;99.90
12460;DHT22;6295;49.452;8.466;2022-07-06T23:38:02;17.50;99.90
12460;DHT22;6295;49.452;8.466;2022-07-06T23:42:05;17.50;99.90
12460;DHT22;6295;49.452;8.466;2022-07-06T23:46:08;17.40;99.90
12460;DHT22;6295;49.452;8.466;2022-07-06T23:50:10;17.50;99.90
12460;DHT22;6295;49.452;8.466;2022-07-06T23:58:15;17.40;99.90
